Flight Track Log - Related Links

Times and Time Zones

All times are in EDT time to prevent confusion due to time zone crossing. See the N99KE flight status page for this flight to view local times or setup timezone preferences in your user account.

Time Position Orientation Groundspeed Altitude Reporting Facility
EDT Latitude Longitude Course Direction KTS MPH feet Rate Location/Type
Mon 03:52:13 PM 42.0939 -83.1628 122° Southeast 91 105 1,000  Level Cleveland Center
Mon 03:53:15 PM 42.0814 -83.1358 122° Southeast 132 152 2,000 991 Climbing Cleveland Center
Mon 03:54:08 PM 42.0819 -83.0903 89° East 150 173 2,900 1,273 Climbing Cleveland Center
Mon 03:54:21 PM 42.0819 -83.0739 90° East 144 166 3,400 1,065 Climbing Cleveland Center
Mon 03:55:10 PM 42.0794 -83.0383 95° East 143 165 4,000 871 Climbing Cleveland Center
Mon 03:55:23 PM 42.0817 -83.0206 80° East 151 174 4,300 968 Climbing Cleveland Center
Mon 03:56:12 PM 42.0806 -82.9819 92° East 148 170 5,000 1,200 Climbing Cleveland Center
Mon 03:56:23 PM 42.0819 -82.9614 85° East 152 175 5,500 1,315 Climbing Cleveland Center
Mon 03:57:25 PM 42.0822 -82.9025 90° East 164 189 6,600 1,062 Climbing Cleveland Center
Mon 03:58:16 PM 42.0831 -82.8517 89° East 159 183 7,500 1,300 Climbing Cleveland Center
Mon 03:58:25 PM 42.0847 -82.8408 78° East 150 173 7,900 1,143 Climbing Cleveland Center
Mon 03:59:19 PM 42.0836 -82.7967 92° East 152 175 8,700 1,065 Climbing Cleveland Center
Mon 03:59:27 PM 42.0844 -82.7847 85° East 149 171 9,000 265 Climbing Cleveland Center
Mon 04:00:27 PM 42.0856 -82.7144 89° East 212 244 9,000 -52 Level Cleveland Center
Mon 04:01:23 PM 42.0842 -82.6536 92° East 202 232 8,900 -51 Descending Cleveland Center
Mon 04:02:25 PM 42.0844 -82.5611 90° East 207 238 8,900 48 Level Cleveland Center
Mon 04:03:27 PM 42.0858 -82.4839 89° East 207 238 9,000 48 Climbing Cleveland Center
Mon 04:04:29 PM 42.0478 -82.4278 132° Southeast 205 236 9,000  Level Cleveland Center
Mon 04:05:12 PM 42.0167 -82.3897 138° Southeast 200 230 9,000  Level Cleveland Center
Mon 04:05:31 PM 42.0069 -82.3764 134° Southeast 202 232 9,000  Level Cleveland Center
Mon 04:06:00 PM 41.9872 -82.3481 133° Southeast 204 235 9,000  Level Cleveland Center
Mon 04:06:33 PM 41.9697 -82.3186 129° Southeast 204 235 9,000  Level Cleveland Center
Mon 04:06:55 PM 41.9522 -82.2942 134° Southeast 205 236 9,000  Level Cleveland Center
Mon 04:07:35 PM 41.9317 -82.2625 131° Southeast 204 235 9,000  Level Cleveland Center
Mon 04:08:08 PM 41.9061 -82.2272 134° Southeast 202 232 9,000  Level Cleveland Center
Mon 04:08:37 PM 41.8847 -82.1972 134° Southeast 203 234 9,000  Level Cleveland Center
Mon 04:09:08 PM 41.8675 -82.1700 130° Southeast 204 235 9,000  Level Cleveland Center
Mon 04:09:39 PM 41.8461 -82.1419 136° Southeast 202 232 9,000  Level Cleveland Center
Mon 04:10:09 PM 41.8286 -82.1158 132° Southeast 202 232 9,000  Level Cleveland Center
Mon 04:10:42 PM 41.8086 -82.0872 133° Southeast 204 235 9,000  Level Cleveland Center
Mon 04:10:58 PM 41.7953 -82.0681 133° Southeast 203 234 9,000  Level Cleveland Center
Mon 04:11:44 PM 41.7703 -82.0317 133° Southeast 203 234 9,000  Level Cleveland Center
Mon 04:11:58 PM 41.7561 -82.0139 137° Southeast 202 232 9,000  Level Cleveland Center
Mon 04:12:46 PM 41.7319 -81.9769 131° Southeast 201 231 9,000  Level Cleveland Center
Mon 04:12:53 PM 41.7208 -81.9631 137° Southeast 202 232 9,000  Level Cleveland Center
Mon 04:13:48 PM 41.6864 -81.9103 131° Southeast 204 235 9,000  Level Cleveland Center
Mon 04:14:06 PM 41.6767 -81.8969 134° Southeast 205 236 9,000  Level Cleveland Center
Mon 04:14:50 PM 41.6461 -81.8542 134° Southeast 206 237 9,000  Level Cleveland Center
Mon 04:15:00 PM 41.6414 -81.8464 129° Southeast 205 236 9,000  Level Cleveland Center
Mon 04:15:52 PM 41.6072 -81.7989 134° Southeast 205 236 9,000  Level Cleveland Center
Mon 04:16:13 PM 41.5931 -81.7797 135° Southeast 204 235 9,000  Level Cleveland Center
Mon 04:16:56 PM 41.5650 -81.7417 135° Southeast 204 235 9,000  Level Cleveland Center
Mon 04:17:56 PM 41.5281 -81.6869 132° Southeast 205 236 9,000  Level Cleveland Center
Mon 04:18:58 PM 41.4881 -81.6306 133° Southeast 206 237 9,000  Level Cleveland Center
Mon 04:20:00 PM 41.4475 -81.5742 134° Southeast 206 237 9,000  Level Cleveland Center
Mon 04:21:02 PM 41.4067 -81.5169 134° Southeast 209 241 9,000  Level Cleveland Center
Mon 04:22:04 PM 41.3667 -81.4600 133° Southeast 208 239 9,000  Level Cleveland Center
Mon 04:23:07 PM 41.3267 -81.4033 133° Southeast 207 238 9,000  Level Cleveland Center
Mon 04:24:09 PM 41.2800 -81.3383 134° Southeast 207 238 9,000  Level Cleveland Center
Mon 04:25:11 PM 41.2392 -81.2819 134° Southeast 209 241 9,000  Level Cleveland Center
Mon 04:26:13 PM 41.1989 -81.2239 133° Southeast 211 243 9,000  Level Cleveland Center
Mon 04:27:15 PM 41.1578 -81.1675 134° Southeast 211 243 9,000  Level Cleveland Center
Mon 04:28:17 PM 41.1169 -81.1108 134° Southeast 211 243 9,000  Level Cleveland Center
Mon 04:29:19 PM 41.0753 -81.0542 134° Southeast 213 245 9,000  Level Cleveland Center
Mon 04:30:21 PM 41.0300 -80.9900 133° Southeast 211 243 9,000  Level Cleveland Center
Mon 04:31:23 PM 40.9894 -80.9342 134° Southeast 210 242 9,000  Level Cleveland Center
Mon 04:32:25 PM 40.9497 -80.8786 133° Southeast 209 241 9,000  Level Cleveland Center
Mon 04:33:27 PM 40.9092 -80.8233 134° Southeast 209 241 9,000  Level Cleveland Center
Mon 04:34:29 PM 40.8686 -80.7683 134° Southeast 210 242 9,000  Level Cleveland Center
Mon 04:35:32 PM 40.8283 -80.7122 133° Southeast 210 242 9,000  Level Cleveland Center
Mon 04:36:34 PM 40.7828 -80.6519 135° Southeast 210 242 9,000  Level Cleveland Center
Mon 04:37:36 PM 40.7425 -80.5950 133° Southeast 210 242 9,000  Level Cleveland Center
Mon 04:38:38 PM 40.6944 -80.5300 134° Southeast 209 241 9,000  Level Cleveland Center
Mon 04:39:40 PM 40.6547 -80.4756 134° Southeast 206 237 9,000  Level Cleveland Center
Mon 04:40:42 PM 40.6136 -80.4208 135° Southeast 206 237 9,000  Level Cleveland Center
Mon 04:41:44 PM 40.5706 -80.3611 133° Southeast 208 239 9,000  Level Cleveland Center
Mon 04:42:46 PM 40.5322 -80.3103 135° Southeast 208 239 9,000  Level Cleveland Center
Mon 04:43:48 PM 40.4925 -80.2561 134° Southeast 208 239 9,000  Level Cleveland Center
Mon 04:44:50 PM 40.4522 -80.2025 135° Southeast 208 239 9,000  Level Cleveland Center
Mon 04:45:52 PM 40.4042 -80.1386 135° Southeast 209 241 9,000  Level Cleveland Center
Mon 04:46:54 PM 40.3658 -80.0856 133° Southeast 203 234 9,000  Level Cleveland Center
Mon 04:47:57 PM 40.3258 -80.0322 135° Southeast 210 242 9,000  Level Cleveland Center
Mon 04:48:59 PM 40.2847 -79.9772 134° Southeast 211 243 9,000  Level Cleveland Center
Mon 04:50:01 PM 40.2436 -79.9225 135° Southeast 211 243 9,000  Level Cleveland Center
Mon 04:51:03 PM 40.1944 -79.8578 135° Southeast 210 242 9,000  Level Cleveland Center
Mon 04:52:05 PM 40.1536 -79.8033 134° Southeast 211 243 9,000  Level Cleveland Center
Mon 04:53:07 PM 40.1122 -79.7483 135° Southeast 212 244 9,000  Level Cleveland Center
Mon 04:54:09 PM 40.0717 -79.6944 135° Southeast 208 239 9,000 48 Level Cleveland Center
Mon 04:55:11 PM 40.0300 -79.6406 135° Southeast 210 242 9,100 48 Climbing Cleveland Center
Mon 04:56:13 PM 39.9889 -79.5853 134° Southeast 213 245 9,100  Level Cleveland Center
Mon 04:57:15 PM 39.9381 -79.5189 135° Southeast 215 247 9,100  Level Cleveland Center
Mon 04:58:17 PM 39.8961 -79.4644 135° Southeast 215 247 9,100  Level Cleveland Center
Mon 04:59:19 PM 39.8536 -79.4078 134° Southeast 218 251 9,100  Level Cleveland Center
Mon 05:00:21 PM 39.8108 -79.3528 135° Southeast 217 250 9,100  Level Cleveland Center
Mon 05:01:24 PM 39.7697 -79.2964 133° Southeast 216 249 9,100  Level Cleveland Center
Mon 05:02:26 PM 39.7269 -79.2425 136° Southeast 215 247 9,100  Level Cleveland Center
Mon 05:03:28 PM 39.6753 -79.1775 136° Southeast 215 247 9,100  Level Cleveland Center
Mon 05:04:24 PM 39.6431 -79.1325 133° Southeast 211 243 9,100  Level Washington Center
Mon 05:05:23 PM 39.5906 -79.0681 137° Southeast 225 259 9,100  Level Washington Center
Mon 05:06:24 PM 39.5483 -79.0150 136° Southeast 230 265 9,100  Level Washington Center
Mon 05:07:24 PM 39.5083 -78.9619 134° Southeast 223 257 9,100  Level Washington Center
Mon 05:09:22 PM 39.4256 -78.8558 135° Southeast 212 244 9,100  Level Washington Center
Mon 05:10:23 PM 39.3853 -78.8058 136° Southeast 212 244 9,100  Level Washington Center
Mon 05:11:24 PM 39.3450 -78.7531 135° Southeast 212 244 9,100  Level Washington Center
Mon 05:12:22 PM 39.3028 -78.7003 136° Southeast 212 244 9,100  Level Washington Center
Mon 05:13:22 PM 39.2644 -78.6478 133° Southeast 212 244 9,100  Level Washington Center
Mon 05:14:23 PM 39.2219 -78.5950 136° Southeast 212 244 9,100 -295 Level Washington Center
Mon 05:15:24 PM 39.1794 -78.5422 136° Southeast 212 244 8,500 -555 Descending Washington Center
Mon 05:16:22 PM 39.1350 -78.4869 136° Southeast 212 244 8,000 -508 Descending Washington Center
Mon 05:17:22 PM 39.0944 -78.4347 135° Southeast 212 244 7,500 -443 Descending Washington Center
Mon 05:18:24 PM 39.0542 -78.3822 135° Southeast 212 244 7,100 -194 Descending Washington Center
Mon 05:19:57 PM 39.0000 -78.3000 130° Southeast 190 219 7,000 -28 Descending Potomac TRACON
Mon 05:21:58 PM 38.9167 -78.2167 142° Southeast 186 214 7,000  Level Potomac TRACON
Mon 05:22:58 PM 38.8833 -78.1667 131° Southeast 184 212 7,000  Level Potomac TRACON
Mon 05:24:04 PM 38.8333 -78.1333 153° Southeast 179 206 7,000  Level Potomac TRACON
Mon 05:24:58 PM 38.8000 -78.1000 142° Southeast 178 205 7,000  Level Potomac TRACON
Mon 05:25:58 PM 38.7667 -78.0667 142° Southeast 176 203 7,000 -50 Level Potomac TRACON
Mon 05:26:58 PM 38.7167 -78.0167 142° Southeast 187 215 6,900 -298 Descending Potomac TRACON
Mon 05:27:59 PM 38.6833 -77.9667 130° Southeast 203 234 6,400 -446 Descending Potomac TRACON
Mon 05:28:59 PM 38.6500 -77.9167 130° Southeast 193 222 6,000 -211 Descending Potomac TRACON
Mon 05:29:53 PM 38.6000 -77.8833 152° Southeast 182 209 6,000  Level Potomac TRACON
Mon 05:30:59 PM 38.5667 -77.8500 142° Southeast 179 206 6,000 -250 Level Potomac TRACON
Mon 05:31:53 PM 38.5500 -77.7833 108° East 191 220 5,500 -500 Descending Potomac TRACON
Mon 05:32:59 PM 38.5500 -77.7167 90° East 194 223 5,000 -250 Descending Potomac TRACON
Mon 05:33:53 PM 38.5500 -77.6500 90° East 187 215 5,000  Level Potomac TRACON
Mon 05:34:53 PM 38.5500 -77.5833 90° East 183 211 5,000  Level Potomac TRACON
Mon 05:35:59 PM 38.5500 -77.5167 90° East 182 209 5,000  Level Potomac TRACON
Mon 05:36:53 PM 38.5500 -77.4667 90° East 182 209 5,000  Level Potomac TRACON
Mon 05:37:53 PM 38.5500 -77.4000 90° East 179 206 5,000  Level Potomac TRACON
Mon 05:38:53 PM 38.5667 -77.3333 72° East 187 215 5,000 -200 Level Potomac TRACON
Mon 05:39:53 PM 38.5833 -77.2667 72° East 193 222 4,600 -700 Descending Potomac TRACON
Mon 05:40:53 PM 38.6000 -77.2000 72° East 210 242 3,600 -1,053 Descending Potomac TRACON
Mon 05:41:47 PM 38.6333 -77.1500 50° Northeast 204 235 2,600 -1,105 Descending Potomac TRACON
Mon 05:42:47 PM 38.6500 -77.0833 72° East 198 228 1,500 -714 Descending Potomac TRACON
Mon 05:43:53 PM 38.6833 -77.0333 49° Northeast 172 198 1,100 -300 Descending Potomac TRACON
Mon 05:44:47 PM 38.7167 -77.0000 38° Northeast 136 157 900 -263 Descending Potomac TRACON
Mon 05:45:47 PM 38.7333 -76.9833 38° Northeast 83 96 600 -300 Descending Potomac TRACON
Mon 05:46:47 PM 38.7500 -76.9500 57° Northeast 79 91 300 -300 Descending Potomac TRACON
Mon 05:48:00 PM 38.7486 -76.9559 180° South  Level Estimated
Mon 05:55:00 PM 38.7486 -76.9559 72° East  Level Estimated
Mon 05:56:00 PM 38.7486 -76.9559 72° East  Level Estimated
Mon 05:57:00 PM 38.7486 -76.9559 72° East  Level Estimated

Login

Don't have an account? Register now (free) for customized features, flight alerts, and more!